createdAt,value
2023-03-07T00:01:29.670Z,99180.83
2023-03-07T00:03:58.062Z,99176.04
2023-03-07T00:06:26.512Z,99169.21
2023-03-07T00:08:57.210Z,99168.14
2023-03-07T00:11:29.416Z,99162.74
2023-03-07T00:13:57.819Z,99159.09
2023-03-07T00:16:26.189Z,99155.83
2023-03-07T00:18:54.854Z,99154.81
2023-03-07T00:21:23.870Z,99152.83
2023-03-07T00:23:52.279Z,99149.59
2023-03-07T00:26:22.051Z,99144.98
2023-03-07T00:28:51.668Z,99137.70
2023-03-07T00:31:20.327Z,99141.46
2023-03-07T00:33:50.534Z,99134.73
2023-03-07T00:36:21.715Z,99132.83
2023-03-07T00:38:49.922Z,99125.95
2023-03-07T00:41:22.860Z,99128.54
2023-03-07T00:43:50.976Z,99118.38
2023-03-07T00:46:20.021Z,99116.80
2023-03-07T00:48:48.416Z,99119.41
2023-03-07T00:51:18.974Z,99113.05
2023-03-07T00:53:47.427Z,99106.33
2023-03-07T00:56:17.319Z,99106.17
2023-03-07T00:58:45.569Z,99102.23
2023-03-07T01:01:15.822Z,99102.86
2023-03-07T01:03:44.230Z,99100.73
2023-03-07T01:06:15.345Z,99095.84
2023-03-07T01:08:44.254Z,99094.43
2023-03-07T01:11:14.389Z,99090.30
2023-03-07T01:13:42.453Z,99091.56
2023-03-07T01:16:16.440Z,99094.17
2023-03-07T01:18:45.146Z,99089.27
2023-03-07T01:21:27.394Z,99086.61
2023-03-07T01:23:55.643Z,99079.05
2023-03-07T01:26:25.709Z,99076.54
2023-03-07T01:28:55.691Z,99072.98
2023-03-07T01:31:23.943Z,99070.40
2023-03-07T01:33:53.454Z,99069.29
2023-03-07T01:36:25.472Z,99071.13
2023-03-07T01:38:55.130Z,99066.70
2023-03-07T01:41:24.168Z,99065.62
2023-03-07T01:43:53.415Z,99062.45
2023-03-07T01:46:37.455Z,99055.36
2023-03-07T01:49:13.005Z,99052.11
2023-03-07T01:51:43.235Z,99055.93
2023-03-07T01:54:12.254Z,99053.41
2023-03-07T01:56:41.958Z,99053.09
2023-03-07T01:59:10.749Z,99043.64
2023-03-07T02:01:38.838Z,99043.76
2023-03-07T02:04:14.077Z,99044.38
2023-03-07T02:06:42.436Z,99039.84
2023-03-07T02:09:19.061Z,99038.55
2023-03-07T02:11:47.282Z,99037.44
2023-03-07T02:14:15.541Z,99033.95
2023-03-07T02:16:43.873Z,99033.60
2023-03-07T02:19:37.717Z,99029.21
2023-03-07T02:22:13.573Z,99024.18
2023-03-07T02:25:12.334Z,99020.60
2023-03-07T02:27:40.307Z,99020.64
2023-03-07T02:30:10.482Z,99017.07
2023-03-07T02:32:38.907Z,99014.42
2023-03-07T02:35:18.981Z,99014.20
2023-03-07T02:37:50.979Z,99012.95
2023-03-07T02:40:20.174Z,99005.65
2023-03-07T02:42:48.536Z,99007.05
2023-03-07T02:45:17.623Z,99009.35
2023-03-07T02:47:45.736Z,99004.08
2023-03-07T02:50:17.728Z,99001.36
2023-03-07T02:52:49.756Z,98999.64
2023-03-07T02:55:17.688Z,98999.73
2023-03-07T02:57:51.160Z,98997.71
2023-03-07T03:00:19.974Z,98994.91
2023-03-07T03:02:48.055Z,98991.38
2023-03-07T03:05:15.981Z,98986.02
2023-03-07T03:07:46.512Z,98986.19
2023-03-07T03:10:14.532Z,98986.95
2023-03-07T03:12:44.239Z,98983.11
2023-03-07T03:15:13.154Z,98980.98
2023-03-07T03:17:42.413Z,98980.09
2023-03-07T03:20:13.008Z,98979.77
2023-03-07T03:22:41.416Z,98983.20
2023-03-07T03:25:12.190Z,98983.05
2023-03-07T03:27:40.934Z,98984.85
2023-03-07T03:30:10.671Z,98980.48
2023-03-07T03:32:48.766Z,98975.86
2023-03-07T03:35:17.516Z,98973.75
2023-03-07T03:37:46.136Z,98968.38
2023-03-07T03:40:17.720Z,98971.36
2023-03-07T03:42:46.535Z,98965.44
2023-03-07T03:45:15.894Z,98966.90
2023-03-07T03:47:43.926Z,98967.25
2023-03-07T03:50:16.270Z,98965.02
2023-03-07T03:52:45.396Z,98967.52
2023-03-07T03:55:13.971Z,98969.73
2023-03-07T03:57:43.374Z,98967.58
2023-03-07T04:00:14.944Z,98966.13
2023-03-07T04:02:43.163Z,98966.48
2023-03-07T04:05:11.982Z,98961.52
2023-03-07T04:07:41.959Z,98959.88
2023-03-07T04:10:10.922Z,98957.03
2023-03-07T04:12:41.860Z,98957.83
2023-03-07T04:15:12.620Z,98955.86
2023-03-07T04:17:41.357Z,98954.39
2023-03-07T04:20:17.473Z,98956.16
2023-03-07T04:22:46.710Z,98953.80
2023-03-07T04:25:14.791Z,98950.58
2023-03-07T04:27:42.996Z,98952.39
2023-03-07T04:30:12.016Z,98951.13
2023-03-07T04:32:42.626Z,98950.27
2023-03-07T04:35:11.956Z,98949.30
2023-03-07T04:37:40.228Z,98952.40
2023-03-07T04:40:09.382Z,98951.04
2023-03-07T04:42:37.434Z,98954.54
2023-03-07T04:45:06.373Z,98954.63
2023-03-07T04:47:35.555Z,98954.67
2023-03-07T04:50:03.816Z,98953.49
2023-03-07T04:52:33.935Z,98954.56
2023-03-07T04:55:02.456Z,98949.70
2023-03-07T04:57:31.053Z,98948.95
2023-03-07T05:00:00.004Z,98946.01
2023-03-07T05:02:28.917Z,98942.30
2023-03-07T05:04:57.426Z,98940.05
2023-03-07T05:07:27.307Z,98937.41
2023-03-07T05:09:55.663Z,98938.34
2023-03-07T05:12:27.855Z,98941.06
2023-03-07T05:14:56.829Z,98943.69
2023-03-07T05:17:24.767Z,98939.86
2023-03-07T05:19:56.170Z,98941.42
2023-03-07T05:22:42.988Z,98947.43
2023-03-07T05:25:12.840Z,98945.52
2023-03-07T05:27:41.981Z,98941.06
2023-03-07T05:30:11.759Z,98939.62
2023-03-07T05:32:40.519Z,98934.92
2023-03-07T05:35:10.712Z,98926.50
2023-03-07T05:37:39.661Z,98926.13
2023-03-07T05:40:10.208Z,98926.39
2023-03-07T05:42:41.145Z,98922.41
2023-03-07T05:45:09.921Z,98920.59
2023-03-07T05:47:39.033Z,98922.82
2023-03-07T05:50:11.231Z,98926.85
2023-03-07T05:52:42.175Z,98927.80
2023-03-07T05:55:11.378Z,98931.95
2023-03-07T05:57:39.745Z,98933.49
2023-03-07T06:00:08.608Z,98933.04
2023-03-07T06:02:42.785Z,98934.89
2023-03-07T06:05:13.022Z,98932.27
2023-03-07T06:07:44.109Z,98932.36
2023-03-07T06:10:14.919Z,98942.02
2023-03-07T06:12:43.125Z,98939.81
2023-03-07T06:15:18.599Z,98936.85
2023-03-07T06:17:47.721Z,98939.08
2023-03-07T06:20:16.500Z,98940.77
2023-03-07T06:22:44.483Z,98950.52
2023-03-07T06:25:13.203Z,98952.22
2023-03-07T06:27:42.093Z,98951.77
2023-03-07T06:30:12.275Z,98956.96
2023-03-07T06:32:41.248Z,98955.05
2023-03-07T06:35:12.750Z,98942.64
2023-03-07T06:37:41.598Z,98944.30
2023-03-07T06:40:10.985Z,98946.07
2023-03-07T06:42:39.544Z,98951.77
2023-03-07T06:45:08.729Z,98947.59
2023-03-07T06:47:37.081Z,98944.10
2023-03-07T06:50:06.225Z,98941.54
2023-03-07T06:52:34.764Z,98944.10
2023-03-07T06:55:05.860Z,98940.98
2023-03-07T06:57:35.670Z,98936.51
2023-03-07T07:00:07.258Z,98930.86
2023-03-07T07:02:36.118Z,98936.02
2023-03-07T07:05:06.391Z,98934.66
2023-03-07T07:07:36.044Z,98933.20
2023-03-07T07:10:04.978Z,98928.63
2023-03-07T07:12:33.474Z,98928.65
2023-03-07T07:15:05.040Z,98925.34
2023-03-07T07:17:35.859Z,98926.73
2023-03-07T07:20:11.307Z,98924.16
2023-03-07T07:22:41.275Z,98923.58
2023-03-07T07:25:10.370Z,98924.38
2023-03-07T07:27:38.410Z,98920.36
2023-03-07T07:30:08.111Z,98921.89
2023-03-07T07:32:41.528Z,98917.39
2023-03-07T07:35:10.914Z,98920.75
2023-03-07T07:37:41.941Z,98921.49
2023-03-07T07:40:12.297Z,98922.03
2023-03-07T07:42:41.141Z,98920.77
2023-03-07T07:45:24.240Z,98920.34
2023-03-07T07:47:59.126Z,98916.05
2023-03-07T07:50:27.298Z,98917.59
2023-03-07T07:53:01.614Z,98922.10
2023-03-07T07:55:30.428Z,98921.23
2023-03-07T07:57:58.400Z,98920.90
2023-03-07T08:00:26.521Z,98920.33
2023-03-07T08:02:54.518Z,98920.26
2023-03-07T08:05:24.048Z,98918.69
2023-03-07T08:07:52.881Z,98917.95
2023-03-07T08:10:21.855Z,98920.91
2023-03-07T08:12:53.128Z,98917.07
2023-03-07T08:15:21.861Z,98917.54
2023-03-07T08:17:53.206Z,98919.26
2023-03-07T08:20:23.409Z,98913.52
2023-03-07T08:22:53.014Z,98914.02
2023-03-07T08:25:22.962Z,98913.61
2023-03-07T08:27:55.662Z,98916.30
2023-03-07T08:30:26.503Z,98917.00
2023-03-07T08:33:01.805Z,98920.10
2023-03-07T08:35:30.743Z,98917.17
2023-03-07T08:37:59.822Z,98920.32
2023-03-07T08:40:28.857Z,98916.33
2023-03-07T08:42:58.908Z,98917.95
2023-03-07T08:45:27.239Z,98913.25
2023-03-07T08:47:55.651Z,98907.56
2023-03-07T08:50:25.964Z,98907.86
2023-03-07T08:52:55.152Z,98911.98
2023-03-07T08:55:23.400Z,98915.58
2023-03-07T08:57:51.519Z,98915.40
2023-03-07T09:00:19.853Z,98918.67
2023-03-07T09:02:48.252Z,98913.48
2023-03-07T09:05:16.672Z,98908.44
2023-03-07T09:07:44.787Z,98915.67
2023-03-07T09:10:14.538Z,98912.43
2023-03-07T09:12:43.065Z,98910.89
2023-03-07T09:15:11.542Z,98912.11
2023-03-07T09:17:40.525Z,98910.02
2023-03-07T09:20:09.588Z,98911.74
2023-03-07T09:22:38.302Z,98915.25
2023-03-07T09:25:06.611Z,98920.69
2023-03-07T09:27:34.723Z,98920.58
2023-03-07T09:30:02.902Z,98923.94
2023-03-07T09:32:33.549Z,98924.25
2023-03-07T09:35:02.900Z,98925.16
2023-03-07T09:37:31.271Z,98926.69
2023-03-07T09:40:01.346Z,98929.35
2023-03-07T09:42:44.897Z,98930.38
2023-03-07T09:45:36.131Z,98930.91
2023-03-07T09:48:40.797Z,98933.48
2023-03-07T09:51:17.086Z,98929.91
2023-03-07T09:53:45.942Z,98928.77
2023-03-07T09:56:37.732Z,98926.77
2023-03-07T09:59:39.664Z,98921.54
2023-03-07T10:02:34.940Z,98926.89
2023-03-07T10:05:08.651Z,98925.45
2023-03-07T10:07:37.075Z,98927.46
2023-03-07T10:10:37.860Z,98922.65
2023-03-07T10:13:19.729Z,98926.59
2023-03-07T10:15:50.746Z,98918.51
2023-03-07T10:18:29.269Z,98917.98
2023-03-07T10:21:12.540Z,98918.69
2023-03-07T10:24:19.556Z,98914.99
2023-03-07T10:27:10.679Z,98914.17
2023-03-07T10:29:47.745Z,98911.86
2023-03-07T10:32:26.105Z,98904.83
2023-03-07T10:35:02.791Z,98898.66
2023-03-07T10:37:57.012Z,98902.23
2023-03-07T10:40:35.166Z,98903.38
2023-03-07T10:43:04.788Z,98900.05
2023-03-07T10:45:35.366Z,98904.75
2023-03-07T10:48:08.373Z,98902.44
2023-03-07T10:50:42.213Z,98902.63
2023-03-07T10:53:21.674Z,98899.79
2023-03-07T10:57:06.445Z,98909.57
2023-03-07T10:59:35.045Z,98900.09
2023-03-07T11:02:05.902Z,98901.79
2023-03-07T11:04:45.062Z,98890.66
2023-03-07T11:07:28.484Z,98882.48
2023-03-07T11:09:57.927Z,98882.64
2023-03-07T11:12:29.422Z,98883.18
2023-03-07T11:15:04.599Z,98881.73
2023-03-07T11:17:48.443Z,98875.27
2023-03-07T11:20:30.889Z,98881.47
2023-03-07T11:23:20.070Z,98875.02
2023-03-07T11:25:48.031Z,98876.35
2023-03-07T11:28:31.922Z,98874.58
2023-03-07T11:31:35.459Z,98879.02
2023-03-07T11:34:14.665Z,98880.98
2023-03-07T11:36:44.209Z,98879.45
2023-03-07T11:39:28.287Z,98879.36
2023-03-07T11:41:58.759Z,98877.17
2023-03-07T11:44:36.081Z,98879.77
2023-03-07T11:47:34.240Z,98885.13
2023-03-07T11:50:18.279Z,98877.91
2023-03-07T11:53:01.146Z,98876.50
2023-03-07T11:55:42.853Z,98878.23
2023-03-07T11:58:33.054Z,98885.59
2023-03-07T12:01:29.964Z,98881.77
2023-03-07T12:04:12.996Z,98888.02
2023-03-07T12:06:59.788Z,98892.08
2023-03-07T12:09:54.426Z,98894.46
2023-03-07T12:12:38.079Z,98900.65
2023-03-07T12:15:41.608Z,98897.65
2023-03-07T12:18:32.987Z,98904.38
2023-03-07T12:21:15.268Z,98904.23
2023-03-07T12:23:52.977Z,98906.52
2023-03-07T12:26:22.431Z,98908.08
2023-03-07T12:28:53.453Z,98909.02
2023-03-07T12:31:25.045Z,98906.23
2023-03-07T12:34:09.610Z,98904.90
2023-03-07T12:37:04.440Z,98903.16
2023-03-07T12:39:34.667Z,98905.41
2023-03-07T12:42:15.025Z,98903.95
2023-03-07T12:44:46.365Z,98906.00
2023-03-07T12:47:32.377Z,98910.02
2023-03-07T12:50:10.993Z,98911.49
2023-03-07T12:52:45.147Z,98913.18
2023-03-07T12:55:36.444Z,98914.56
2023-03-07T12:58:17.109Z,98914.16
2023-03-07T13:00:50.692Z,98916.23
2023-03-07T13:03:23.737Z,98915.55
2023-03-07T13:05:51.743Z,98915.99
2023-03-07T13:08:23.872Z,98913.89
2023-03-07T13:10:52.666Z,98915.16
2023-03-07T13:13:43.438Z,98915.60
2023-03-07T13:16:31.340Z,98916.13
2023-03-07T13:19:37.195Z,98922.87
2023-03-07T13:22:14.969Z,98919.40
2023-03-07T13:24:43.778Z,98919.75
2023-03-07T13:27:24.112Z,98921.18
2023-03-07T13:30:10.271Z,98916.95
2023-03-07T13:32:57.161Z,98914.93
2023-03-07T13:35:28.442Z,98920.02
2023-03-07T13:38:17.970Z,98921.58
2023-03-07T13:40:48.648Z,98919.88
2023-03-07T13:43:19.722Z,98919.89
2023-03-07T13:46:02.580Z,98922.85
2023-03-07T13:48:30.923Z,98925.11
2023-03-07T13:50:59.381Z,98921.29
2023-03-07T13:53:33.521Z,98924.47
2023-03-07T13:56:17.668Z,98926.85
2023-03-07T13:59:10.426Z,98928.17
2023-03-07T14:01:39.620Z,98929.33
2023-03-07T14:04:39.389Z,98929.48
2023-03-07T14:07:13.106Z,98931.00
2023-03-07T14:09:57.601Z,98928.80
2023-03-07T14:12:33.173Z,98928.13
2023-03-07T14:15:21.328Z,98933.27
2023-03-07T14:18:02.916Z,98932.67
2023-03-07T14:21:09.699Z,98930.95
2023-03-07T14:23:59.433Z,98933.10
2023-03-07T14:26:33.489Z,98931.05
2023-03-07T14:29:22.541Z,98932.27
2023-03-07T14:31:57.005Z,98933.82
2023-03-07T14:34:33.204Z,98930.64
2023-03-07T14:37:07.976Z,98933.67
2023-03-07T14:39:38.970Z,98929.60
2023-03-07T14:42:18.289Z,98931.35
2023-03-07T14:45:01.567Z,98932.77
2023-03-07T14:47:32.991Z,98932.05
2023-03-07T14:50:26.928Z,98936.07
2023-03-07T14:53:03.847Z,98932.54
2023-03-07T14:55:39.365Z,98932.88
2023-03-07T14:58:08.109Z,98932.44
2023-03-07T15:00:36.376Z,98935.90
2023-03-07T15:03:08.302Z,98935.55
2023-03-07T15:05:38.628Z,98942.78
2023-03-07T15:08:21.985Z,98945.34
2023-03-07T15:10:59.946Z,98950.03
2023-03-07T15:13:36.452Z,98948.82
2023-03-07T15:16:09.187Z,98956.28
2023-03-07T15:18:43.955Z,98956.65
2023-03-07T15:21:18.071Z,98952.04
2023-03-07T15:23:54.010Z,98948.28
2023-03-07T15:26:26.507Z,98949.05
2023-03-07T15:29:02.593Z,98955.61
2023-03-07T15:31:32.179Z,98954.77
2023-03-07T15:34:17.603Z,98957.58
2023-03-07T15:36:45.562Z,98958.06
2023-03-07T15:39:33.181Z,98956.12
2023-03-07T15:42:05.578Z,98961.26
2023-03-07T15:44:36.340Z,98959.30
2023-03-07T15:47:14.371Z,98959.41
2023-03-07T15:49:44.362Z,98960.92
2023-03-07T15:52:32.285Z,98965.18
2023-03-07T15:55:05.478Z,98970.65
2023-03-07T15:57:38.180Z,98979.65
2023-03-07T16:00:18.919Z,98980.64
2023-03-07T16:02:48.557Z,98981.40
2023-03-07T16:05:19.912Z,98986.46
2023-03-07T16:07:52.400Z,98985.52
2023-03-07T16:10:28.531Z,98988.98
2023-03-07T16:12:56.673Z,98989.46
2023-03-07T16:15:24.731Z,98984.25
2023-03-07T16:17:55.076Z,98993.25
2023-03-07T16:20:25.528Z,98992.39
2023-03-07T16:22:53.769Z,98999.15
2023-03-07T16:25:22.333Z,99002.95
2023-03-07T16:27:52.715Z,99005.34
2023-03-07T16:30:25.613Z,99007.06
2023-03-07T16:32:53.749Z,99002.61
2023-03-07T16:35:25.402Z,99005.92
2023-03-07T16:37:53.783Z,99002.89
2023-03-07T16:40:23.058Z,99002.45
2023-03-07T16:43:32.723Z,99003.74
2023-03-07T16:46:02.270Z,99004.04
2023-03-07T16:48:30.609Z,99006.17
2023-03-07T16:50:59.570Z,99009.93
2023-03-07T16:53:27.588Z,99011.36
2023-03-07T16:55:56.269Z,99015.75
2023-03-07T16:58:33.681Z,99015.90
2023-03-07T17:01:01.766Z,99019.32
2023-03-07T17:03:30.725Z,99019.18
2023-03-07T17:05:59.206Z,99021.60
2023-03-07T17:08:27.591Z,99017.48
2023-03-07T17:10:55.964Z,99017.66
2023-03-07T17:13:26.578Z,99016.65
2023-03-07T17:15:55.143Z,99021.10
2023-03-07T17:18:26.763Z,99024.15
2023-03-07T17:20:55.899Z,99022.05
2023-03-07T17:23:24.413Z,99024.79
2023-03-07T17:25:52.853Z,99024.82
2023-03-07T17:28:21.377Z,99027.36
2023-03-07T17:30:50.169Z,99025.42
2023-03-07T17:33:19.854Z,99024.73
2023-03-07T17:35:47.874Z,99022.73
2023-03-07T17:38:15.918Z,99026.05
2023-03-07T17:40:44.292Z,99025.48
2023-03-07T17:43:15.175Z,99026.86
2023-03-07T17:45:51.175Z,99030.86
2023-03-07T17:48:20.943Z,99031.16
2023-03-07T17:50:48.831Z,99028.99
2023-03-07T17:53:16.808Z,99023.61
2023-03-07T17:55:45.007Z,99028.02
2023-03-07T17:58:13.336Z,99027.36
2023-03-07T18:00:41.376Z,99025.92
2023-03-07T18:03:09.454Z,99022.67
2023-03-07T18:05:39.497Z,99021.97
2023-03-07T18:08:07.671Z,99024.78
2023-03-07T18:10:39.968Z,99022.09
2023-03-07T18:13:09.817Z,99025.79
2023-03-07T18:15:37.852Z,99024.70
2023-03-07T18:18:07.013Z,99025.59
2023-03-07T18:20:35.052Z,99025.02
2023-03-07T18:23:04.121Z,99029.08
2023-03-07T18:25:32.074Z,99031.96
2023-03-07T18:28:04.541Z,99033.41
2023-03-07T18:30:34.236Z,99032.13
2023-03-07T18:33:05.701Z,99034.29
2023-03-07T18:35:36.718Z,99036.24
2023-03-07T18:38:04.828Z,99038.73
2023-03-07T18:40:33.625Z,99040.13
2023-03-07T18:43:01.711Z,99036.71
2023-03-07T18:45:30.722Z,99031.88
2023-03-07T18:48:00.221Z,99030.86
2023-03-07T18:50:28.245Z,99033.05
2023-03-07T18:52:58.312Z,99029.08
2023-03-07T18:55:26.998Z,99030.80
2023-03-07T18:57:55.732Z,99030.14
2023-03-07T19:00:24.350Z,99032.11
2023-03-07T19:02:52.259Z,99031.83
2023-03-07T19:05:20.629Z,99028.23
2023-03-07T19:07:49.587Z,99027.11
2023-03-07T19:10:17.623Z,99031.63
2023-03-07T19:12:46.916Z,99032.78
2023-03-07T19:15:15.102Z,99033.67
2023-03-07T19:17:44.206Z,99031.77
2023-03-07T19:20:12.859Z,99027.83
2023-03-07T19:22:42.126Z,99031.50
2023-03-07T19:25:11.092Z,99033.17
2023-03-07T19:27:39.212Z,99035.52
2023-03-07T19:30:11.161Z,99042.72
2023-03-07T19:32:41.637Z,99039.74
2023-03-07T19:35:10.018Z,99042.00
2023-03-07T19:37:38.066Z,99039.52
2023-03-07T19:40:07.150Z,99042.48
2023-03-07T19:42:35.475Z,99045.79
2023-03-07T19:45:05.287Z,99044.02
2023-03-07T19:47:33.396Z,99039.78
2023-03-07T19:50:01.528Z,99038.35
2023-03-07T19:52:30.238Z,99033.42
2023-03-07T19:54:58.283Z,99033.56
2023-03-07T19:57:26.482Z,99032.61
2023-03-07T19:59:56.785Z,99033.17
2023-03-07T20:02:26.248Z,99039.64
2023-03-07T20:04:55.503Z,99043.91
2023-03-07T20:07:24.801Z,99039.13
2023-03-07T20:09:53.134Z,99025.59
2023-03-07T20:12:22.241Z,99031.61
2023-03-07T20:14:50.421Z,99035.74
2023-03-07T20:17:18.650Z,99037.92
2023-03-07T20:19:46.926Z,99040.85
2023-03-07T20:22:14.933Z,99041.13
2023-03-07T20:24:43.976Z,99042.66
2023-03-07T20:27:12.150Z,99046.20
2023-03-07T20:29:40.351Z,99046.77
2023-03-07T20:32:08.567Z,99046.79
2023-03-07T20:34:37.141Z,99047.34
2023-03-07T20:37:05.241Z,99045.16
2023-03-07T20:39:33.318Z,99050.27
2023-03-07T20:42:02.792Z,99048.66
2023-03-07T20:44:31.182Z,99047.75
2023-03-07T20:47:01.712Z,99046.09
2023-03-07T20:49:30.374Z,99042.27
2023-03-07T20:51:58.452Z,99037.70
2023-03-07T20:54:26.318Z,99032.30
2023-03-07T20:56:54.885Z,99032.23
2023-03-07T20:59:24.896Z,99029.33
2023-03-07T21:01:52.972Z,99029.08
2023-03-07T21:04:21.191Z,99022.95
2023-03-07T21:06:49.519Z,99022.59
2023-03-07T21:09:18.541Z,99021.59
2023-03-07T21:11:49.155Z,99020.75
2023-03-07T21:14:19.115Z,99022.15
2023-03-07T21:16:52.246Z,99018.98
2023-03-07T21:19:21.210Z,99021.36
2023-03-07T21:21:49.142Z,99020.33
2023-03-07T21:24:17.121Z,99023.09
2023-03-07T21:26:47.319Z,99024.20
2023-03-07T21:29:16.075Z,99023.79
2023-03-07T21:31:48.291Z,99016.60
2023-03-07T21:34:17.625Z,99017.06
2023-03-07T21:36:47.650Z,99018.67
2023-03-07T21:39:20.787Z,99018.01
2023-03-07T21:41:49.182Z,99018.11
2023-03-07T21:44:18.228Z,99021.21
2023-03-07T21:46:46.352Z,99023.33
2023-03-07T21:49:14.312Z,99023.23
2023-03-07T21:51:42.795Z,99023.46
2023-03-07T21:54:11.346Z,99024.64
2023-03-07T21:56:40.183Z,99019.39
2023-03-07T21:59:08.372Z,99019.37
2023-03-07T22:01:37.342Z,99020.67
2023-03-07T22:04:05.270Z,99020.92
2023-03-07T22:06:33.405Z,99023.63
2023-03-07T22:09:01.526Z,99024.48
2023-03-07T22:11:29.824Z,99026.84
2023-03-07T22:13:58.777Z,99027.88
2023-03-07T22:16:29.458Z,99030.67
2023-03-07T22:18:57.673Z,99029.22
2023-03-07T22:21:26.774Z,99029.17
2023-03-07T22:23:59.941Z,99037.04
2023-03-07T22:26:29.091Z,99036.65
2023-03-07T22:28:57.282Z,99034.91
2023-03-07T22:31:25.725Z,99033.77
2023-03-07T22:33:54.693Z,99029.50
2023-03-07T22:36:24.637Z,99026.63
2023-03-07T22:38:55.279Z,99029.51
2023-03-07T22:41:24.045Z,99031.64
2023-03-07T22:43:52.601Z,99025.98
2023-03-07T22:46:23.119Z,99028.05
2023-03-07T22:48:54.971Z,99030.75
2023-03-07T22:51:23.973Z,99031.13
2023-03-07T22:53:53.253Z,99028.40
2023-03-07T22:56:26.005Z,99023.63
2023-03-07T22:58:58.627Z,99017.74
2023-03-07T23:01:28.431Z,99014.20
2023-03-07T23:03:57.368Z,99012.27
2023-03-07T23:06:31.152Z,99012.52
2023-03-07T23:08:59.921Z,99010.09
2023-03-07T23:14:24.084Z,99019.11
2023-03-07T23:16:50.827Z,99012.91
2023-03-07T23:19:17.443Z,99017.27
2023-03-07T23:21:44.569Z,99015.90
2023-03-07T23:24:19.243Z,99008.56
2023-03-07T23:26:45.796Z,99005.17
2023-03-07T23:29:12.716Z,98999.14
2023-03-07T23:31:40.534Z,98993.60
2023-03-07T23:34:13.360Z,98990.11
2023-03-07T23:36:42.490Z,98991.02
2023-03-07T23:39:09.852Z,98988.75
2023-03-07T23:41:36.630Z,98988.62
2023-03-07T23:44:04.431Z,98984.19
2023-03-07T23:46:31.218Z,98985.94
2023-03-07T23:48:58.927Z,98979.28
2023-03-07T23:51:25.930Z,98976.98
2023-03-07T23:53:54.712Z,98975.23
2023-03-07T23:56:21.717Z,98977.77
2023-03-07T23:58:51.194Z,98981.88
